EZY8467 EGKK-LFRB
Flight info
| Callsign | EZY8467 |
|---|---|
| Flight time | 0h 48m |
| Altitude | 28000 |
| Route | IMVUR N63 SAM M195 MARUK N621 LELNA DCT BADUR T120 ANLEV |
| Aircraft | A319/M-SDE2E3FGIJ1RWXYZ/LB1 |
Departure
| Time | 2026-05-05 18:16 |
|---|---|
| Airport | London Gatwick Airport (EGKK) |
Arrival
| Time | 2026-05-05 19:04 |
|---|---|
| Airport | Brest Bretagne airport (LFRB) |
| Time | Latitude | Longitude | Altitude | Speed | Heading |
|---|---|---|---|---|---|
| 2026-05-05 17:53 | 51.15262 | -0.18598 | 200 ft | 0 kts | 77° |
| 2026-05-05 18:05 | 51.15260 | -0.18613 | 200 ft | 2 kts | 77° |
| 2026-05-05 18:06 | 51.15257 | -0.18636 | 199 ft | 2 kts | 77° |
| 2026-05-05 18:06 | 51.15255 | -0.18644 | 199 ft | 2 kts | 77° |
| 2026-05-05 18:06 | 51.15250 | -0.18682 | 200 ft | 2 kts | 76° |
| 2026-05-05 18:06 | 51.15250 | -0.18706 | 199 ft | 2 kts | 113° |
| 2026-05-05 18:07 | 51.15258 | -0.18726 | 199 ft | 2 kts | 145° |
| 2026-05-05 18:07 | 51.15267 | -0.18732 | 199 ft | 0 kts | 165° |
| 2026-05-05 18:07 | 51.15274 | -0.18734 | 199 ft | 0 kts | 168° |
| 2026-05-05 18:10 | 51.15266 | -0.18732 | 199 ft | 3 kts | 167° |
| 2026-05-05 18:10 | 51.15223 | -0.18716 | 200 ft | 7 kts | 167° |
| 2026-05-05 18:10 | 51.15199 | -0.18708 | 200 ft | 0 kts | 167° |
| 2026-05-05 18:11 | 51.15199 | -0.18707 | 200 ft | 0 kts | 167° |
| 2026-05-05 18:11 | 51.15185 | -0.18703 | 200 ft | 4 kts | 167° |
| 2026-05-05 18:12 | 51.15140 | -0.18701 | 200 ft | 8 kts | 206° |
| 2026-05-05 18:12 | 51.15114 | -0.18818 | 200 ft | 14 kts | 259° |
| 2026-05-05 18:12 | 51.15091 | -0.18998 | 200 ft | 18 kts | 258° |
| 2026-05-05 18:12 | 51.15062 | -0.19211 | 200 ft | 17 kts | 255° |
| 2026-05-05 18:13 | 51.14994 | -0.19262 | 200 ft | 11 kts | 170° |
| 2026-05-05 18:13 | 51.14950 | -0.19376 | 200 ft | 19 kts | 258° |
| 2026-05-05 18:13 | 51.14907 | -0.19686 | 201 ft | 37 kts | 258° |
| 2026-05-05 18:13 | 51.14862 | -0.20014 | 201 ft | 28 kts | 257° |
| 2026-05-05 18:14 | 51.14819 | -0.20313 | 201 ft | 26 kts | 258° |
| 2026-05-05 18:14 | 51.14782 | -0.20586 | 202 ft | 21 kts | 256° |
| 2026-05-05 18:14 | 51.14764 | -0.20683 | 202 ft | 6 kts | 250° |
| 2026-05-05 18:14 | 51.14722 | -0.20724 | 202 ft | 9 kts | 172° |
| 2026-05-05 18:15 | 51.14636 | -0.20691 | 202 ft | 15 kts | 166° |
| 2026-05-05 18:15 | 51.14599 | -0.20600 | 202 ft | 10 kts | 76° |
| 2026-05-05 18:15 | 51.14630 | -0.20371 | 201 ft | 48 kts | 78° |
| 2026-05-05 18:15 | 51.14757 | -0.19450 | 201 ft | 118 kts | 78° |
| 2026-05-05 18:16 | 51.14970 | -0.17890 | 306 ft | 163 kts | 78° |
| 2026-05-05 18:16 | 51.15211 | -0.16154 | 1007 ft | 161 kts | 77° |
| 2026-05-05 18:16 | 51.15443 | -0.14406 | 1636 ft | 171 kts | 75° |
| 2026-05-05 18:16 | 51.15704 | -0.12472 | 2170 ft | 187 kts | 75° |
| 2026-05-05 18:17 | 51.15996 | -0.10353 | 2617 ft | 209 kts | 75° |
| 2026-05-05 18:17 | 51.16313 | -0.08052 | 3209 ft | 221 kts | 71° |
| 2026-05-05 18:17 | 51.17108 | -0.05998 | 4003 ft | 220 kts | 36° |
| 2026-05-05 18:17 | 51.18466 | -0.05106 | 4923 ft | 218 kts | 5° |
| 2026-05-05 18:18 | 51.19976 | -0.05399 | 5729 ft | 224 kts | 348° |
| 2026-05-05 18:18 | 51.21452 | -0.06379 | 6022 ft | 246 kts | 323° |
| 2026-05-05 18:18 | 51.22496 | -0.08633 | 6004 ft | 265 kts | 291° |
| 2026-05-05 18:18 | 51.22646 | -0.11580 | 6007 ft | 274 kts | 263° |
| 2026-05-05 18:19 | 51.22282 | -0.14615 | 6000 ft | 277 kts | 261° |
| 2026-05-05 18:19 | 51.21901 | -0.17660 | 6193 ft | 285 kts | 262° |
| 2026-05-05 18:19 | 51.21527 | -0.20751 | 7071 ft | 287 kts | 261° |
| 2026-05-05 18:19 | 51.21166 | -0.23803 | 8077 ft | 285 kts | 261° |
| 2026-05-05 18:20 | 51.20806 | -0.26883 | 8964 ft | 287 kts | 261° |
| 2026-05-05 18:20 | 51.20559 | -0.29005 | 9550 ft | 289 kts | 261° |
| 2026-05-05 18:20 | 51.20075 | -0.33169 | 10657 ft | 293 kts | 261° |
| 2026-05-05 18:20 | 51.19685 | -0.36394 | 11448 ft | 298 kts | 260° |
| 2026-05-05 18:21 | 51.19265 | -0.39623 | 12201 ft | 302 kts | 259° |
| 2026-05-05 18:21 | 51.18834 | -0.42868 | 12928 ft | 307 kts | 259° |
| 2026-05-05 18:21 | 51.18394 | -0.46200 | 13666 ft | 310 kts | 259° |
| 2026-05-05 18:21 | 51.17951 | -0.49557 | 14356 ft | 314 kts | 259° |
| 2026-05-05 18:22 | 51.17397 | -0.52975 | 14789 ft | 328 kts | 254° |
| 2026-05-05 18:22 | 51.16610 | -0.56532 | 14925 ft | 348 kts | 249° |
| 2026-05-05 18:22 | 51.15677 | -0.60088 | 14930 ft | 353 kts | 248° |
| 2026-05-05 18:22 | 51.14709 | -0.63679 | 14936 ft | 354 kts | 248° |
| 2026-05-05 18:23 | 51.13738 | -0.67283 | 14936 ft | 354 kts | 247° |
| 2026-05-05 18:23 | 51.12758 | -0.70934 | 14936 ft | 355 kts | 247° |
| 2026-05-05 18:23 | 51.11792 | -0.74539 | 15119 ft | 362 kts | 247° |
| 2026-05-05 18:23 | 51.10674 | -0.78137 | 15811 ft | 365 kts | 234° |
| 2026-05-05 18:24 | 51.08866 | -0.81000 | 16611 ft | 365 kts | 218° |
| 2026-05-05 18:24 | 51.06818 | -0.83363 | 17271 ft | 369 kts | 215° |
| 2026-05-05 18:24 | 51.04702 | -0.85707 | 17892 ft | 374 kts | 215° |
| 2026-05-05 18:24 | 51.02576 | -0.88110 | 18520 ft | 377 kts | 216° |
| 2026-05-05 18:25 | 51.00466 | -0.90556 | 19145 ft | 379 kts | 217° |
| 2026-05-05 18:25 | 50.99769 | -0.91374 | 19347 ft | 380 kts | 217° |
| 2026-05-05 18:25 | 50.96240 | -0.95564 | 20448 ft | 382 kts | 217° |
| 2026-05-05 18:25 | 50.94150 | -0.98065 | 21239 ft | 378 kts | 217° |
| 2026-05-05 18:26 | 50.92061 | -1.00570 | 22003 ft | 375 kts | 218° |
| 2026-05-05 18:26 | 50.89986 | -1.03060 | 22724 ft | 374 kts | 218° |
| 2026-05-05 18:26 | 50.87933 | -1.05513 | 23404 ft | 372 kts | 218° |
| 2026-05-05 18:26 | 50.85863 | -1.07978 | 24072 ft | 372 kts | 218° |
| 2026-05-05 18:27 | 50.83826 | -1.10411 | 24751 ft | 370 kts | 218° |
| 2026-05-05 18:27 | 50.81774 | -1.12864 | 25480 ft | 367 kts | 218° |
| 2026-05-05 18:27 | 50.79741 | -1.15297 | 26006 ft | 370 kts | 218° |
| 2026-05-05 18:27 | 50.77652 | -1.17793 | 26202 ft | 381 kts | 218° |
| 2026-05-05 18:28 | 50.73312 | -1.22970 | 26601 ft | 401 kts | 217° |
| 2026-05-05 18:28 | 50.71080 | -1.25627 | 26857 ft | 408 kts | 217° |
| 2026-05-05 18:28 | 50.68810 | -1.28327 | 27249 ft | 411 kts | 217° |
| 2026-05-05 18:29 | 50.66526 | -1.31042 | 27677 ft | 413 kts | 217° |
| 2026-05-05 18:29 | 50.64220 | -1.33778 | 28114 ft | 415 kts | 217° |
| 2026-05-05 18:29 | 50.61922 | -1.36502 | 28517 ft | 417 kts | 217° |
| 2026-05-05 18:29 | 50.59604 | -1.39246 | 28870 ft | 420 kts | 217° |
| 2026-05-05 18:30 | 50.54967 | -1.44721 | 28942 ft | 419 kts | 217° |
| 2026-05-05 18:30 | 50.50296 | -1.50225 | 28948 ft | 420 kts | 217° |
| 2026-05-05 18:31 | 50.45643 | -1.55697 | 28946 ft | 421 kts | 217° |
| 2026-05-05 18:31 | 50.40979 | -1.61167 | 28933 ft | 411 kts | 216° |
| 2026-05-05 18:32 | 50.38718 | -1.63813 | 28931 ft | 400 kts | 217° |
| 2026-05-05 18:32 | 50.36494 | -1.66415 | 28938 ft | 398 kts | 216° |
| 2026-05-05 18:32 | 50.32152 | -1.71506 | 28932 ft | 378 kts | 216° |
| 2026-05-05 18:33 | 50.27970 | -1.76384 | 28934 ft | 376 kts | 216° |
| 2026-05-05 18:33 | 50.23798 | -1.81231 | 28937 ft | 376 kts | 216° |
| 2026-05-05 18:34 | 50.19619 | -1.86074 | 28939 ft | 376 kts | 216° |
| 2026-05-05 18:34 | 50.15431 | -1.90919 | 28936 ft | 372 kts | 216° |
| 2026-05-05 18:35 | 50.11301 | -1.95684 | 28937 ft | 372 kts | 216° |
| 2026-05-05 18:35 | 50.07128 | -2.00485 | 28933 ft | 373 kts | 216° |
| 2026-05-05 18:36 | 50.02997 | -2.05230 | 28931 ft | 372 kts | 216° |
| 2026-05-05 18:36 | 49.98761 | -2.09813 | 28934 ft | 373 kts | 210° |
| 2026-05-05 18:37 | 49.94119 | -2.13480 | 28935 ft | 376 kts | 203° |
| 2026-05-05 18:37 | 49.89316 | -2.16740 | 28934 ft | 376 kts | 202° |
| 2026-05-05 18:38 | 49.84541 | -2.19958 | 28939 ft | 377 kts | 202° |
| 2026-05-05 18:38 | 49.79725 | -2.23209 | 28942 ft | 377 kts | 202° |
| 2026-05-05 18:39 | 49.74948 | -2.26436 | 28943 ft | 378 kts | 203° |
| 2026-05-05 18:39 | 49.70124 | -2.29694 | 28944 ft | 378 kts | 202° |
| 2026-05-05 18:40 | 49.65309 | -2.32938 | 28944 ft | 378 kts | 202° |
| 2026-05-05 18:40 | 49.60510 | -2.36165 | 28943 ft | 377 kts | 202° |
| 2026-05-05 18:41 | 49.55710 | -2.39387 | 28942 ft | 378 kts | 202° |
| 2026-05-05 18:41 | 49.50898 | -2.42608 | 28942 ft | 379 kts | 202° |
| 2026-05-05 18:42 | 49.46041 | -2.45852 | 28942 ft | 378 kts | 202° |
| 2026-05-05 18:42 | 49.41189 | -2.49088 | 28915 ft | 379 kts | 202° |
| 2026-05-05 18:43 | 49.38760 | -2.50705 | 28264 ft | 384 kts | 202° |
| 2026-05-05 18:43 | 49.36315 | -2.52328 | 27589 ft | 387 kts | 202° |
| 2026-05-05 18:43 | 49.33825 | -2.53982 | 26922 ft | 389 kts | 202° |
| 2026-05-05 18:43 | 49.31363 | -2.55615 | 26269 ft | 391 kts | 203° |
| 2026-05-05 18:44 | 49.28845 | -2.57282 | 25606 ft | 393 kts | 203° |
| 2026-05-05 18:44 | 49.26360 | -2.58927 | 24943 ft | 395 kts | 203° |
| 2026-05-05 18:44 | 49.23856 | -2.60584 | 24293 ft | 396 kts | 203° |
| 2026-05-05 18:44 | 49.21319 | -2.62261 | 23683 ft | 396 kts | 203° |
| 2026-05-05 18:45 | 49.18809 | -2.63921 | 23119 ft | 396 kts | 203° |
| 2026-05-05 18:45 | 49.16283 | -2.65589 | 22539 ft | 397 kts | 202° |
| 2026-05-05 18:45 | 49.13772 | -2.67255 | 21970 ft | 397 kts | 202° |
| 2026-05-05 18:45 | 49.11226 | -2.68943 | 21386 ft | 397 kts | 202° |
| 2026-05-05 18:46 | 49.08697 | -2.70614 | 20860 ft | 396 kts | 202° |
| 2026-05-05 18:46 | 49.06204 | -2.72256 | 20424 ft | 393 kts | 202° |
| 2026-05-05 18:46 | 49.03695 | -2.73903 | 19983 ft | 390 kts | 202° |
| 2026-05-05 18:46 | 49.01227 | -2.75518 | 19558 ft | 387 kts | 202° |
| 2026-05-05 18:47 | 48.98772 | -2.77126 | 19118 ft | 384 kts | 202° |
| 2026-05-05 18:47 | 48.96337 | -2.78716 | 18684 ft | 382 kts | 202° |
| 2026-05-05 18:47 | 48.93922 | -2.80292 | 18260 ft | 379 kts | 202° |
| 2026-05-05 18:47 | 48.91499 | -2.81871 | 17829 ft | 378 kts | 202° |
| 2026-05-05 18:48 | 48.89092 | -2.83437 | 17407 ft | 376 kts | 202° |
| 2026-05-05 18:48 | 48.86703 | -2.84981 | 16984 ft | 374 kts | 202° |
| 2026-05-05 18:48 | 48.84321 | -2.86522 | 16564 ft | 371 kts | 202° |
| 2026-05-05 18:48 | 48.81958 | -2.88052 | 16146 ft | 370 kts | 202° |
| 2026-05-05 18:49 | 48.79612 | -2.89571 | 15719 ft | 368 kts | 202° |
| 2026-05-05 18:49 | 48.77274 | -2.91086 | 15294 ft | 367 kts | 202° |
| 2026-05-05 18:49 | 48.74948 | -2.92591 | 14882 ft | 365 kts | 202° |
| 2026-05-05 18:49 | 48.72654 | -2.94246 | 14433 ft | 364 kts | 213° |
| 2026-05-05 18:50 | 48.70896 | -2.96946 | 14009 ft | 360 kts | 240° |
| 2026-05-05 18:50 | 48.69986 | -3.00415 | 13616 ft | 354 kts | 257° |
| 2026-05-05 18:50 | 48.69410 | -3.03981 | 13233 ft | 351 kts | 259° |
| 2026-05-05 18:50 | 48.68866 | -3.07551 | 12854 ft | 347 kts | 259° |
| 2026-05-05 18:51 | 48.68331 | -3.11100 | 12475 ft | 344 kts | 259° |
| 2026-05-05 18:51 | 48.67797 | -3.14587 | 12096 ft | 342 kts | 259° |
| 2026-05-05 18:51 | 48.67251 | -3.18083 | 11713 ft | 339 kts | 259° |
| 2026-05-05 18:51 | 48.66712 | -3.21495 | 11339 ft | 336 kts | 259° |
| 2026-05-05 18:52 | 48.66170 | -3.24900 | 10960 ft | 333 kts | 259° |
| 2026-05-05 18:52 | 48.65629 | -3.28288 | 10583 ft | 330 kts | 259° |
| 2026-05-05 18:52 | 48.65091 | -3.31642 | 10201 ft | 327 kts | 259° |
| 2026-05-05 18:52 | 48.64561 | -3.34933 | 10013 ft | 316 kts | 260° |
| 2026-05-05 18:53 | 48.64054 | -3.38065 | 9980 ft | 301 kts | 260° |
| 2026-05-05 18:53 | 48.63568 | -3.41060 | 9897 ft | 290 kts | 260° |
| 2026-05-05 18:53 | 48.63092 | -3.44015 | 9547 ft | 288 kts | 260° |
| 2026-05-05 18:53 | 48.62626 | -3.46906 | 9249 ft | 286 kts | 260° |
| 2026-05-05 18:54 | 48.62154 | -3.49824 | 8933 ft | 283 kts | 261° |
| 2026-05-05 18:54 | 48.61692 | -3.52668 | 8626 ft | 281 kts | 261° |
| 2026-05-05 18:54 | 48.61229 | -3.55509 | 8341 ft | 278 kts | 260° |
| 2026-05-05 18:54 | 48.60746 | -3.58330 | 8051 ft | 276 kts | 260° |
| 2026-05-05 18:55 | 48.60262 | -3.61109 | 7756 ft | 274 kts | 259° |
| 2026-05-05 18:55 | 48.59781 | -3.63857 | 7477 ft | 272 kts | 260° |
| 2026-05-05 18:55 | 48.59301 | -3.66609 | 7173 ft | 270 kts | 259° |
| 2026-05-05 18:55 | 48.58828 | -3.69332 | 6881 ft | 269 kts | 259° |
| 2026-05-05 18:56 | 48.58357 | -3.72040 | 6601 ft | 267 kts | 259° |
| 2026-05-05 18:56 | 48.57881 | -3.74767 | 6303 ft | 265 kts | 259° |
| 2026-05-05 18:56 | 48.57413 | -3.77444 | 6012 ft | 264 kts | 259° |
| 2026-05-05 18:56 | 48.56948 | -3.80109 | 5729 ft | 262 kts | 259° |
| 2026-05-05 18:57 | 48.56488 | -3.82735 | 5447 ft | 261 kts | 259° |
| 2026-05-05 18:57 | 48.56024 | -3.85380 | 5168 ft | 260 kts | 259° |
| 2026-05-05 18:57 | 48.55561 | -3.88011 | 4887 ft | 259 kts | 258° |
| 2026-05-05 18:57 | 48.55100 | -3.90637 | 4606 ft | 258 kts | 258° |
| 2026-05-05 18:58 | 48.54643 | -3.93227 | 4330 ft | 256 kts | 258° |
| 2026-05-05 18:58 | 48.54185 | -3.95818 | 4092 ft | 260 kts | 258° |
| 2026-05-05 18:58 | 48.53918 | -3.98421 | 4031 ft | 244 kts | 270° |
| 2026-05-05 18:58 | 48.53752 | -4.00904 | 4020 ft | 231 kts | 264° |
| 2026-05-05 18:59 | 48.53406 | -4.03224 | 4023 ft | 226 kts | 259° |
| 2026-05-05 18:59 | 48.53003 | -4.05440 | 4012 ft | 213 kts | 258° |
| 2026-05-05 18:59 | 48.52578 | -4.07541 | 4018 ft | 207 kts | 257° |
| 2026-05-05 18:59 | 48.52135 | -4.09599 | 4026 ft | 207 kts | 256° |
| 2026-05-05 19:00 | 48.51678 | -4.11637 | 4030 ft | 206 kts | 255° |
| 2026-05-05 19:00 | 48.51208 | -4.13692 | 3912 ft | 207 kts | 255° |
| 2026-05-05 19:00 | 48.50735 | -4.15744 | 3656 ft | 207 kts | 255° |
| 2026-05-05 19:00 | 48.50265 | -4.17781 | 3380 ft | 208 kts | 255° |
| 2026-05-05 19:01 | 48.49791 | -4.19842 | 3102 ft | 209 kts | 255° |
| 2026-05-05 19:01 | 48.49319 | -4.21899 | 2825 ft | 209 kts | 255° |
| 2026-05-05 19:01 | 48.48845 | -4.23971 | 2545 ft | 210 kts | 255° |
| 2026-05-05 19:01 | 48.48368 | -4.26061 | 2264 ft | 211 kts | 255° |
| 2026-05-05 19:02 | 48.47895 | -4.28132 | 2074 ft | 204 kts | 255° |
| 2026-05-05 19:02 | 48.47439 | -4.30133 | 1776 ft | 198 kts | 255° |
| 2026-05-05 19:02 | 48.47007 | -4.32030 | 1489 ft | 187 kts | 255° |
| 2026-05-05 19:02 | 48.46606 | -4.33793 | 1262 ft | 172 kts | 255° |
| 2026-05-05 19:03 | 48.46233 | -4.35444 | 1010 ft | 159 kts | 255° |
| 2026-05-05 19:03 | 48.45892 | -4.36946 | 783 ft | 146 kts | 255° |
| 2026-05-05 19:03 | 48.45579 | -4.38328 | 559 ft | 136 kts | 254° |
| 2026-05-05 19:03 | 48.45273 | -4.39682 | 399 ft | 135 kts | 254° |
| 2026-05-05 19:04 | 48.44980 | -4.40988 | 332 ft | 125 kts | 254° |
| 2026-05-05 19:04 | 48.44748 | -4.42019 | 318 ft | 58 kts | 252° |
| 2026-05-05 19:04 | 48.44704 | -4.42173 | 317 ft | 8 kts | 195° |
| 2026-05-05 19:04 | 48.44640 | -4.42141 | 317 ft | 10 kts | 160° |
| 2026-05-05 19:05 | 48.44569 | -4.42100 | 317 ft | 8 kts | 158° |
| 2026-05-05 19:05 | 48.44516 | -4.42068 | 317 ft | 8 kts | 130° |
| 2026-05-05 19:05 | 48.44519 | -4.41979 | 317 ft | 7 kts | 102° |
| 2026-05-05 19:05 | 48.44492 | -4.41955 | 317 ft | 2 kts | 171° |
| 2026-05-05 19:06 | 48.44458 | -4.41939 | 317 ft | 5 kts | 162° |
| 2026-05-05 19:06 | 48.44426 | -4.41950 | 317 ft | 2 kts | 201° |
| 2026-05-05 19:06 | 48.44425 | -4.41951 | 317 ft | 0 kts | 201° |